Time;durP1;ratioP1;P1;durP2;ratioP2;P2;SDS_P1;SDS_P2;PMS_P1;PMS_P2;Temp;Humidity;BMP_temperature;BMP_pressure;BME280_temperature;BME280_humidity;BME280_pressure;Samples;Min_cycle;Max_cycle;Signal;HPM_P1;HPM_P2
2021/04/11 00:00:37;;;;;;;26.83;7.03;;;10.50;69.40;;;;;;4771291;29;20138;-76
2021/04/11 00:03:17;;;;;;;47.22;11.30;;;10.50;69.40;;;;;;4800985;29;20095;-76
2021/04/11 00:05:44;;;;;;;32.75;9.65;;;10.50;69.40;;;;;;4793261;29;20066;-76
2021/04/11 00:08:12;;;;;;;20.70;6.30;;;10.50;69.30;;;;;;4803200;29;20054;-75
2021/04/11 00:10:42;;;;;;;11.43;4.05;;;10.40;69.60;;;;;;4797172;29;20061;-75
2021/04/11 00:13:21;;;;;;;5.97;2.60;;;10.40;69.60;;;;;;4792835;29;20047;-76
2021/04/11 00:15:48;;;;;;;6.75;2.22;;;10.40;69.40;;;;;;4787929;29;20407;-75
2021/04/11 00:18:14;;;;;;;5.32;2.35;;;10.20;69.80;;;;;;4798776;29;20055;-76
2021/04/11 00:20:41;;;;;;;5.18;2.65;;;10.30;69.60;;;;;;4789328;29;20043;-76
2021/04/11 00:23:08;;;;;;;15.70;4.93;;;10.10;70.00;;;;;;4789616;29;20058;-76
2021/04/11 00:25:37;;;;;;;8.20;3.75;;;10.10;69.90;;;;;;4804652;29;20506;-76
2021/04/11 00:28:04;;;;;;;7.50;2.67;;;10.10;69.90;;;;;;4805680;29;20057;-75
2021/04/11 00:30:31;;;;;;;6.30;2.78;;;10.10;69.70;;;;;;4791076;29;20054;-75
2021/04/11 00:33:00;;;;;;;6.78;2.33;;;10.00;69.90;;;;;;4774102;29;20054;-76
2021/04/11 00:35:28;;;;;;;9.07;2.47;;;10.00;71.00;;;;;;4798499;29;20051;-75
2021/04/11 00:37:55;;;;;;;8.25;2.58;;;9.90;70.40;;;;;;4786810;29;20050;-76
2021/04/11 00:40:29;;;;;;;8.43;3.08;;;9.90;70.40;;;;;;4778792;29;20039;-76
2021/04/11 00:43:09;;;;;;;6.47;2.08;;;9.90;70.50;;;;;;4800776;29;20051;-76
2021/04/11 00:45:54;;;;;;;6.57;2.50;;;9.90;70.50;;;;;;4792995;29;20081;-75
2021/04/11 00:48:24;;;;;;;5.70;2.60;;;9.80;70.50;;;;;;4786553;29;20393;-76
2021/04/11 00:50:59;;;;;;;8.38;2.92;;;9.90;70.30;;;;;;4783715;29;20079;-76
2021/04/11 00:53:26;;;;;;;5.43;2.30;;;9.90;70.70;;;;;;4801868;29;20065;-76
2021/04/11 00:55:53;;;;;;;5.82;2.10;;;9.90;70.10;;;;;;4762634;30;20453;-76
2021/04/11 00:58:25;;;;;;;5.82;2.00;;;10.00;70.20;;;;;;4791651;29;20043;-76
2021/04/11 01:00:54;;;;;;;5.93;1.90;;;10.00;70.10;;;;;;4784441;29;20047;-76
2021/04/11 01:03:26;;;;;;;3.63;1.40;;;10.00;70.10;;;;;;4779162;29;20056;-76
2021/04/11 01:05:54;;;;;;;5.20;1.73;;;10.00;70.40;;;;;;4788085;29;20050;-76
2021/04/11 01:08:25;;;;;;;6.93;1.75;;;9.90;70.50;;;;;;4782949;29;20055;-76
2021/04/11 01:11:11;;;;;;;5.75;2.42;;;9.90;70.70;;;;;;4802983;29;20501;-76
2021/04/11 01:13:46;;;;;;;5.75;1.70;;;9.90;70.90;;;;;;4781825;29;20035;-76
2021/04/11 01:16:14;;;;;;;4.90;1.90;;;9.90;71.30;;;;;;4789435;29;20062;-76
2021/04/11 01:18:42;;;;;;;7.30;1.92;;;9.90;71.60;;;;;;4780907;29;20055;-75
2021/04/11 01:21:30;;;;;;;7.38;2.58;;;9.70;72.40;;;;;;4799709;29;20054;-76
2021/04/11 01:24:32;;;;;;;6.50;2.33;;;9.70;72.50;;;;;;4787115;29;20058;-76
2021/04/11 01:27:02;;;;;;;4.88;1.23;;;9.80;72.50;;;;;;4782009;29;20131;-75
2021/04/11 01:29:29;;;;;;;5.95;1.88;;;9.80;72.30;;;;;;4788938;29;20146;-75
2021/04/11 01:31:57;;;;;;;3.30;1.25;;;9.90;72.50;;;;;;4774297;29;20047;-76
2021/04/11 01:34:26;;;;;;;4.70;1.45;;;9.80;72.40;;;;;;4778295;29;20050;-76
2021/04/11 01:36:56;;;;;;;5.30;1.33;;;9.80;72.80;;;;;;4791163;29;20043;-75
2021/04/11 01:39:31;;;;;;;3.92;1.40;;;9.80;72.90;;;;;;4785202;29;20055;-75
2021/04/11 01:42:00;;;;;;;6.78;1.42;;;9.80;72.70;;;;;;4781361;29;20039;-75
2021/04/11 01:44:31;;;;;;;4.10;1.42;;;9.80;72.60;;;;;;4787528;29;20433;-75
2021/04/11 01:46:59;;;;;;;5.05;1.60;;;9.80;72.70;;;;;;4785322;30;20160;-76
2021/04/11 01:49:32;;;;;;;4.15;1.70;;;9.90;72.80;;;;;;4789625;29;20129;-75
2021/04/11 01:52:29;;;;;;;4.78;1.73;;;9.90;72.80;;;;;;4792033;29;20050;-75
2021/04/11 01:54:57;;;;;;;3.30;1.38;;;9.90;72.50;;;;;;4790191;29;20677;-76
2021/04/11 01:57:33;;;;;;;3.47;1.33;;;9.90;72.60;;;;;;4788585;29;20389;-75
2021/04/11 02:00:16;;;;;;;5.70;1.92;;;9.70;73.00;;;;;;4794016;29;20062;-75
2021/04/11 02:02:53;;;;;;;4.45;1.38;;;9.80;73.10;;;;;;4792621;29;20043;-75
2021/04/11 02:05:21;;;;;;;5.80;1.00;;;9.80;72.70;;;;;;4808725;29;20152;-76
2021/04/11 02:07:53;;;;;;;6.22;1.65;;;9.80;72.80;;;;;;4772047;29;20397;-75
2021/04/11 02:10:29;;;;;;;3.17;1.60;;;9.80;72.80;;;;;;4788754;29;20146;-76
2021/04/11 02:13:18;;;;;;;4.53;1.25;;;9.70;72.90;;;;;;4780600;29;20053;-75
2021/04/11 02:15:50;;;;;;;7.15;1.55;;;9.70;72.90;;;;;;4791523;29;20492;-75
2021/04/11 02:18:18;;;;;;;5.65;1.52;;;9.60;73.30;;;;;;4781715;29;20092;-76
2021/04/11 02:20:46;;;;;;;2.05;0.90;;;9.70;73.40;;;;;;4789963;29;20035;-76
2021/04/11 02:23:16;;;;;;;6.15;1.30;;;9.70;73.50;;;;;;4791584;29;20062;-75
2021/04/11 02:25:46;;;;;;;4.88;1.30;;;9.70;73.50;;;;;;4791706;29;20043;-75
2021/04/11 02:28:15;;;;;;;3.20;1.15;;;9.70;73.20;;;;;;4813418;29;20050;-75
2021/04/11 02:30:49;;;;;;;3.53;1.10;;;9.70;73.30;;;;;;4791444;29;20058;-75
2021/04/11 02:33:19;;;;;;;10.32;1.80;;;9.60;73.40;;;;;;4782687;29;20054;-76
2021/04/11 02:35:46;;;;;;;2.70;0.90;;;9.60;73.50;;;;;;4787632;29;20043;-76
2021/04/11 02:38:16;;;;;;;4.57;1.50;;;9.50;74.00;;;;;;4765158;29;20070;-75
2021/04/11 02:40:46;;;;;;;4.03;1.27;;;9.40;74.20;;;;;;4787474;29;20071;-76
2021/04/11 02:43:19;;;;;;;3.25;1.38;;;9.40;74.40;;;;;;4788894;29;20078;-76
2021/04/11 02:45:46;;;;;;;5.88;1.30;;;9.30;75.00;;;;;;4778271;29;20112;-76
2021/04/11 02:48:16;;;;;;;6.13;1.55;;;9.10;75.10;;;;;;4790916;29;20051;-76
2021/04/11 02:51:12;;;;;;;4.47;1.10;;;9.10;75.60;;;;;;4783376;29;20579;-75
2021/04/11 02:53:44;;;;;;;4.07;1.60;;;9.00;75.70;;;;;;4807124;29;20067;-75
2021/04/11 02:56:21;;;;;;;4.55;1.50;;;9.00;76.10;;;;;;4789874;29;20564;-76
2021/04/11 02:58:51;;;;;;;5.70;1.30;;;8.90;76.50;;;;;;4791720;29;20407;-75
2021/04/11 03:01:29;;;;;;;8.63;1.45;;;8.80;76.90;;;;;;4800656;29;20467;-75
2021/04/11 03:03:57;;;;;;;3.55;1.25;;;8.80;77.00;;;;;;4781544;29;20066;-76
2021/04/11 03:06:27;;;;;;;5.28;1.60;;;8.80;77.20;;;;;;4792642;29;20100;-75
2021/04/11 03:09:01;;;;;;;4.22;1.30;;;8.70;77.20;;;;;;4798231;29;20051;-75
2021/04/11 03:11:37;;;;;;;4.30;1.45;;;8.70;77.10;;;;;;4791723;29;20050;-76
2021/04/11 03:14:07;;;;;;;6.13;1.98;;;8.50;77.40;;;;;;4796232;29;20063;-75
2021/04/11 03:16:40;;;;;;;4.78;1.60;;;8.50;78.00;;;;;;4788060;30;20047;-76
2021/04/11 03:19:14;;;;;;;5.13;1.63;;;8.40;78.00;;;;;;4788205;29;20463;-76
2021/04/11 03:21:42;;;;;;;6.93;1.67;;;8.40;78.20;;;;;;4779991;30;20055;-76
2021/04/11 03:24:10;;;;;;;7.13;1.58;;;8.30;78.30;;;;;;4786741;29;20058;-76
2021/04/11 03:26:43;;;;;;;7.80;2.70;;;8.30;78.10;;;;;;4785197;29;20087;-75
2021/04/11 03:29:49;;;;;;;6.07;2.80;;;8.20;78.00;;;;;;4774067;29;20074;-75
2021/04/11 03:32:27;;;;;;;9.95;3.20;;;8.10;78.80;;;;;;4804261;29;20469;-75
2021/04/11 03:34:57;;;;;;;10.77;3.83;;;8.00;79.40;;;;;;4804531;29;20046;-75
2021/04/11 03:37:26;;;;;;;16.30;5.05;;;8.00;79.70;;;;;;4792486;29;20491;-76
2021/04/11 03:39:55;;;;;;;13.00;5.03;;;8.00;79.80;;;;;;4800364;29;20054;-75
2021/04/11 03:42:26;;;;;;;14.32;5.32;;;8.00;79.50;;;;;;4795883;29;20083;-76
2021/04/11 03:44:55;;;;;;;12.23;4.95;;;8.00;79.50;;;;;;4788434;29;20050;-76
2021/04/11 03:47:36;;;;;;;14.75;5.88;;;7.90;79.60;;;;;;4791636;29;20081;-75
2021/04/11 03:50:10;;;;;;;18.02;6.85;;;7.90;79.40;;;;;;4791490;29;20115;-75
2021/04/11 03:53:11;;;;;;;19.05;6.35;;;7.90;79.70;;;;;;4800269;29;20507;-75
2021/04/11 03:55:46;;;;;;;16.13;5.97;;;7.90;79.70;;;;;;4775509;30;20062;-76
2021/04/11 03:58:25;;;;;;;17.33;6.10;;;7.90;79.70;;;;;;4779349;29;20534;-75
2021/04/11 04:01:01;;;;;;;18.20;6.38;;;7.90;79.60;;;;;;4799697;29;20105;-75
2021/04/11 04:03:34;;;;;;;21.92;6.85;;;7.90;79.60;;;;;;4792615;29;20108;-76
2021/04/11 04:06:18;;;;;;;21.13;7.97;;;7.90;79.90;;;;;;4776926;29;20635;-75
2021/04/11 04:08:44;;;;;;;;;;;7.80;79.80;;;;;;4791076;29;20074;-75
2021/04/11 04:11:26;;;;;;;26.92;8.15;;;7.80;80.10;;;;;;4788456;29;19932;-75
2021/04/11 04:14:12;;;;;;;20.98;7.88;;;7.80;80.10;;;;;;4790748;29;20057;-76
2021/04/11 04:17:09;;;;;;;17.20;6.95;;;7.80;80.10;;;;;;4789859;29;20043;-76
2021/04/11 04:20:01;;;;;;;18.20;6.43;;;7.70;80.80;;;;;;4784803;30;20412;-76
2021/04/11 04:22:48;;;;;;;12.55;5.00;;;7.80;80.50;;;;;;4795702;29;20044;-76
2021/04/11 04:25:41;;;;;;;11.68;4.28;;;7.80;80.70;;;;;;4784421;29;20476;-75
2021/04/11 04:28:50;;;;;;;10.38;3.35;;;7.80;80.80;;;;;;4777208;30;20054;-76
2021/04/11 04:32:02;;;;;;;6.40;2.92;;;7.80;80.50;;;;;;4772654;29;20499;-75
2021/04/11 04:34:48;;;;;;;6.70;2.72;;;7.80;80.80;;;;;;4760496;30;20142;-75
2021/04/11 04:37:29;;;;;;;7.50;2.30;;;7.90;80.80;;;;;;4753400;30;20090;-75
2021/04/11 04:40:08;;;;;;;7.25;2.50;;;8.00;80.70;;;;;;4767187;30;20040;-75
2021/04/11 04:43:01;;;;;;;4.68;1.92;;;8.10;80.70;;;;;;4766709;30;20054;-75
2021/04/11 04:46:00;;;;;;;4.85;2.03;;;8.20;80.90;;;;;;4773106;30;20048;-76
2021/04/11 04:48:33;;;;;;;3.95;1.55;;;8.30;81.30;;;;;;4751925;30;20856;-75
2021/04/11 04:51:16;;;;;;;5.80;1.38;;;8.50;80.40;;;;;;4752615;30;20551;-75
2021/04/11 04:54:06;;;;;;;3.90;1.63;;;8.60;80.00;;;;;;4770453;29;20051;-75
2021/04/11 04:57:03;;;;;;;4.88;1.92;;;8.70;79.20;;;;;;4749497;30;20855;-75
2021/04/11 05:00:04;;;;;;;3.58;1.80;;;8.80;79.00;;;;;;4767232;30;20055;-76
2021/04/11 05:02:55;;;;;;;4.30;1.70;;;8.80;79.40;;;;;;4763203;30;20051;-75
2021/04/11 05:05:24;;;;;;;8.32;1.60;;;8.80;79.80;;;;;;4752026;30;20059;-75
2021/04/11 05:08:05;;;;;;;2.47;1.05;;;9.00;80.20;;;;;;4756992;29;20058;-75
2021/04/11 05:10:43;;;;;;;3.53;1.27;;;9.10;79.90;;;;;;4779943;29;20059;-75
2021/04/11 05:13:23;;;;;;;2.47;0.88;;;9.30;79.60;;;;;;4789771;29;20046;-76
2021/04/11 05:16:18;;;;;;;3.67;1.10;;;9.60;78.50;;;;;;4785593;30;20052;-76
2021/04/11 05:18:58;;;;;;;2.08;0.70;;;9.70;77.90;;;;;;4774804;29;20061;-76
2021/04/11 05:21:38;;;;;;;5.25;0.65;;;10.00;76.90;;;;;;4785852;29;20104;-75
2021/04/11 05:24:21;;;;;;;3.38;0.75;;;10.10;76.60;;;;;;4762271;29;20051;-76
2021/04/11 05:27:21;;;;;;;3.07;0.67;;;10.30;76.10;;;;;;4787568;29;20134;-75
2021/04/11 05:30:06;;;;;;;1.80;0.70;;;10.40;75.40;;;;;;4775154;29;20061;-75
2021/04/11 05:32:33;;;;;;;3.70;0.70;;;10.60;74.90;;;;;;4792404;29;20058;-75
2021/04/11 05:35:00;;;;;;;8.63;1.10;;;10.80;74.20;;;;;;4787253;29;20138;-76
2021/04/11 05:38:15;;;;;;;2.83;0.82;;;10.90;73.70;;;;;;4786463;29;20051;-76
2021/04/11 05:41:02;;;;;;;4.45;0.90;;;11.10;73.50;;;;;;4771962;29;20042;-76
2021/04/11 05:43:36;;;;;;;2.40;0.82;;;11.20;72.70;;;;;;4781505;30;20084;-76
2021/04/11 05:46:22;;;;;;;3.10;0.80;;;11.40;71.80;;;;;;4799648;29;20061;-76
2021/04/11 05:49:07;;;;;;;4.07;1.10;;;11.50;71.70;;;;;;4782387;29;20055;-76
2021/04/11 05:52:02;;;;;;;3.42;0.70;;;11.60;71.40;;;;;;4788546;29;20051;-76
2021/04/11 05:54:40;;;;;;;4.30;0.73;;;11.70;71.20;;;;;;4776056;29;20058;-76
2021/04/11 05:57:35;;;;;;;2.17;1.05;;;11.80;70.60;;;;;;4801944;29;20051;-76
2021/04/11 06:00:18;;;;;;;4.43;0.63;;;12.00;70.50;;;;;;4788251;29;20066;-76
2021/04/11 06:02:58;;;;;;;4.18;1.15;;;12.10;70.00;;;;;;4798188;29;20055;-76
2021/04/11 06:05:32;;;;;;;5.05;1.02;;;12.20;69.80;;;;;;4785971;29;20057;-76
2021/04/11 06:08:12;;;;;;;4.82;1.10;;;12.30;69.50;;;;;;4804594;29;20759;-77
2021/04/11 06:10:59;;;;;;;2.85;1.00;;;12.30;69.00;;;;;;4789383;29;20082;-76
2021/04/11 06:13:35;;;;;;;3.13;0.88;;;12.40;68.70;;;;;;4777570;29;20054;-76
2021/04/11 06:16:07;;;;;;;2.17;0.60;;;12.40;69.00;;;;;;4788585;29;20054;-76
2021/04/11 06:18:35;;;;;;;1.65;0.50;;;12.40;68.80;;;;;;4777846;29;20100;-76
2021/04/11 06:21:20;;;;;;;4.47;1.02;;;12.50;68.70;;;;;;4787722;29;20043;-76
2021/04/11 06:23:58;;;;;;;2.72;1.00;;;12.50;68.60;;;;;;4791643;29;20530;-76
2021/04/11 06:26:39;;;;;;;3.35;0.70;;;12.60;68.20;;;;;;4791120;29;20079;-76
2021/04/11 06:29:22;;;;;;;2.38;0.70;;;12.70;68.40;;;;;;4804992;29;20047;-76
2021/04/11 06:31:57;;;;;;;3.35;0.70;;;12.70;68.10;;;;;;4792164;29;20050;-76
2021/04/11 06:34:35;;;;;;;1.58;0.57;;;12.80;67.60;;;;;;4795458;29;20066;-76
2021/04/11 06:37:06;;;;;;;5.03;0.60;;;12.90;67.60;;;;;;4787759;29;20185;-76
2021/04/11 06:39:38;;;;;;;4.18;0.63;;;13.00;67.10;;;;;;4797082;29;20046;-76
2021/04/11 06:42:27;;;;;;;6.93;0.82;;;13.00;67.00;;;;;;4799517;29;20103;-76
2021/04/11 06:45:32;;;;;;;1.40;0.45;;;13.10;67.10;;;;;;4791896;29;20066;-76
2021/04/11 06:48:20;;;;;;;3.67;0.60;;;13.20;66.70;;;;;;4777405;29;20047;-76
2021/04/11 06:51:12;;;;;;;4.22;0.60;;;13.30;66.30;;;;;;4793798;29;20047;-76
2021/04/11 06:53:48;;;;;;;2.40;0.50;;;13.40;65.80;;;;;;4777906;29;20039;-76
2021/04/11 06:56:42;;;;;;;7.97;1.80;;;13.50;66.00;;;;;;4796978;29;20442;-76
2021/04/11 06:59:08;;;;;;;4.07;0.50;;;13.60;65.50;;;;;;4778467;29;20043;-76
2021/04/11 07:01:53;;;;;;;2.53;0.70;;;13.70;65.20;;;;;;4800426;29;20059;-76
2021/04/11 07:04:27;;;;;;;7.05;0.98;;;13.80;64.90;;;;;;4779790;30;20059;-76
2021/04/11 07:07:12;;;;;;;4.80;0.80;;;13.90;65.10;;;;;;4796920;29;20055;-76
2021/04/11 07:10:10;;;;;;;7.05;0.85;;;14.00;64.10;;;;;;4795660;29;20087;-76
2021/04/11 07:13:01;;;;;;;6.45;1.15;;;14.10;63.80;;;;;;4788289;29;20066;-76
2021/04/11 07:16:00;;;;;;;1.63;0.50;;;14.20;63.20;;;;;;4778683;29;20054;-76
2021/04/11 07:18:30;;;;;;;5.43;0.50;;;14.30;62.90;;;;;;4792352;29;20058;-76
2021/04/11 07:21:05;;;;;;;1.80;0.60;;;14.40;62.30;;;;;;4791905;29;20040;-76
2021/04/11 07:23:41;;;;;;;1.92;0.70;;;14.40;62.10;;;;;;4794147;29;20059;-76
2021/04/11 07:26:44;;;;;;;3.38;0.77;;;14.40;62.50;;;;;;4786641;29;20122;-74
2021/04/11 07:29:39;;;;;;;3.22;1.02;;;14.50;62.40;;;;;;4763695;29;20054;-74
2021/04/11 07:32:18;;;;;;;5.28;0.70;;;14.60;62.20;;;;;;4788567;29;20051;-74
2021/04/11 07:35:00;;;;;;;5.05;0.98;;;14.70;61.30;;;;;;4782816;29;20039;-74
2021/04/11 07:37:52;;;;;;;2.95;1.00;;;14.80;61.00;;;;;;4788201;29;20070;-75
2021/04/11 07:40:43;;;;;;;4.90;0.77;;;14.90;60.70;;;;;;4799787;29;20064;-74
2021/04/11 07:43:37;;;;;;;7.95;1.77;;;14.90;60.80;;;;;;4787410;29;20062;-74
2021/04/11 07:46:27;;;;;;;4.53;1.02;;;15.00;60.80;;;;;;4807949;29;20054;-74
2021/04/11 07:49:12;;;;;;;4.55;0.85;;;15.00;59.90;;;;;;4766113;30;20062;-74
2021/04/11 07:52:14;;;;;;;2.55;0.88;;;15.10;59.70;;;;;;4800053;29;20789;-74
2021/04/11 07:54:59;;;;;;;2.85;0.70;;;15.20;59.40;;;;;;4753312;30;20051;-75
2021/04/11 07:57:38;;;;;;;3.63;0.70;;;15.30;59.10;;;;;;4746028;30;20444;-74
2021/04/11 08:00:36;;;;;;;2.08;0.65;;;15.30;59.00;;;;;;4756213;30;20051;-74
2021/04/11 08:03:42;;;;;;;3.75;0.77;;;15.40;59.00;;;;;;4753617;30;20457;-74
2021/04/11 08:06:17;;;;;;;4.18;0.60;;;15.50;59.10;;;;;;4750759;30;20066;-74
2021/04/11 08:09:16;;;;;;;2.03;0.43;;;15.60;57.80;;;;;;4749910;30;20149;-74
2021/04/11 08:12:02;;;;;;;2.33;0.50;;;15.60;57.70;;;;;;4760808;30;20068;-74
2021/04/11 08:14:35;;;;;;;3.40;1.15;;;15.50;57.50;;;;;;4744852;30;20052;-74
2021/04/11 08:17:32;;;;;;;2.80;0.60;;;15.60;58.10;;;;;;4741023;30;20060;-74
2021/04/11 08:20:17;;;;;;;6.40;0.70;;;15.60;58.50;;;;;;4765159;30;20048;-74
2021/04/11 08:23:05;;;;;;;4.38;0.40;;;15.70;57.50;;;;;;4763276;30;20044;-74
2021/04/11 08:25:41;;;;;;;6.28;0.50;;;15.90;57.30;;;;;;4750424;30;20055;-74
2021/04/11 08:28:29;;;;;;;2.92;0.40;;;16.00;56.40;;;;;;4749302;30;20052;-74
2021/04/11 08:31:14;;;;;;;1.60;0.60;;;16.00;56.50;;;;;;4776034;29;20517;-74
2021/04/11 08:34:23;;;;;;;4.05;0.55;;;16.10;56.10;;;;;;4782702;29;20051;-75
2021/04/11 08:37:17;;;;;;;2.03;0.55;;;16.10;56.10;;;;;;4779193;29;20054;-74
2021/04/11 08:40:08;;;;;;;2.72;0.50;;;16.20;56.50;;;;;;4797779;29;20055;-73
2021/04/11 08:42:57;;;;;;;1.30;0.40;;;16.20;55.40;;;;;;4781099;29;20392;-74
2021/04/11 08:45:45;;;;;;;5.32;0.25;;;16.20;54.90;;;;;;4799916;29;20107;-75
2021/04/11 08:48:56;;;;;;;4.55;0.63;;;16.20;55.00;;;;;;4798346;29;20059;-74
2021/04/11 08:51:35;;;;;;;3.17;0.38;;;16.30;55.80;;;;;;4734145;30;20052;-74
2021/04/11 08:54:25;;;;;;;5.38;0.70;;;16.30;55.10;;;;;;4751569;30;20047;-75
2021/04/11 08:57:18;;;;;;;3.97;0.40;;;16.40;54.30;;;;;;4746032;30;20048;-74
2021/04/11 09:00:03;;;;;;;3.85;0.50;;;16.50;54.10;;;;;;4714311;30;20147;-74
2021/04/11 09:03:11;;;;;;;2.47;0.45;;;16.50;55.20;;;;;;4696083;30;20060;-74
2021/04/11 09:05:51;;;;;;;2.30;0.30;;;16.60;54.60;;;;;;4703188;30;20443;-75
2021/04/11 09:08:29;;;;;;;2.97;0.30;;;16.70;53.30;;;;;;4706322;30;20068;-75
2021/04/11 09:11:11;;;;;;;2.72;0.60;;;16.70;53.60;;;;;;4714139;30;20132;-74
2021/04/11 09:13:57;;;;;;;3.20;0.20;;;16.70;53.20;;;;;;4710093;30;20053;-74
2021/04/11 09:16:45;;;;;;;1.38;0.30;;;16.70;53.60;;;;;;4704255;30;20044;-74
2021/04/11 09:19:31;;;;;;;2.60;0.32;;;16.70;53.20;;;;;;4710771;30;20081;-74
2021/04/11 09:22:55;;;;;;;2.65;0.40;;;16.80;53.80;;;;;;4707855;30;20481;-74
2021/04/11 09:25:28;;;;;;;1.20;0.30;;;17.00;54.10;;;;;;4672137;30;20172;-74
2021/04/11 09:28:17;;;;;;;2.58;0.75;;;17.00;55.10;;;;;;4708409;30;20464;-75
2021/04/11 09:31:11;;;;;;;5.22;0.70;;;17.00;54.20;;;;;;4711988;30;20093;-75
2021/04/11 09:33:41;;;;;;;1.67;0.35;;;17.10;54.30;;;;;;4710277;30;20053;-74
2021/04/11 09:36:29;;;;;;;3.67;0.50;;;17.00;54.30;;;;;;4724852;29;20051;-74
2021/04/11 09:39:21;;;;;;;1.02;0.60;;;16.90;53.50;;;;;;4788891;29;20464;-74
2021/04/11 09:42:21;;;;;;;11.35;0.40;;;16.90;54.30;;;;;;4777633;29;20182;-74
2021/04/11 09:45:04;;;;;;;1.33;0.40;;;16.90;53.80;;;;;;4779571;29;20491;-74
2021/04/11 09:47:33;;;;;;;3.67;0.40;;;16.90;53.70;;;;;;4797645;29;20047;-74
2021/04/11 09:50:22;;;;;;;3.10;0.98;;;16.90;53.60;;;;;;4785419;29;20394;-75
2021/04/11 09:53:29;;;;;;;1.85;0.50;;;16.80;53.20;;;;;;4797731;29;20050;-75
2021/04/11 09:56:29;;;;;;;3.08;0.65;;;16.80;54.00;;;;;;4727771;30;20055;-74
2021/04/11 09:59:18;;;;;;;4.15;0.70;;;16.70;54.10;;;;;;4742441;30;20951;-74
2021/04/11 10:01:50;;;;;;;5.00;0.65;;;16.70;54.10;;;;;;4746537;30;20051;-74
2021/04/11 10:04:46;;;;;;;2.97;0.50;;;16.70;53.30;;;;;;4729528;30;20052;-74
2021/04/11 10:08:06;;;;;;;5.28;1.00;;;16.80;54.00;;;;;;4680774;30;20115;-74
2021/04/11 10:11:05;;;;;;;2.55;0.40;;;16.90;54.60;;;;;;4681752;30;20532;-74
2021/04/11 10:13:59;;;;;;;3.67;0.50;;;16.90;53.40;;;;;;4690587;30;20049;-74
2021/04/11 10:16:36;;;;;;;4.97;0.40;;;16.90;53.10;;;;;;4695413;30;20155;-74
2021/04/11 10:19:24;;;;;;;2.53;0.77;;;16.90;53.00;;;;;;4710013;30;20067;-74
2021/04/11 10:22:11;;;;;;;1.55;0.50;;;16.90;53.20;;;;;;4716252;30;20445;-74
2021/04/11 10:24:56;;;;;;;3.17;0.65;;;16.90;52.30;;;;;;4717690;30;20564;-74
2021/04/11 10:27:29;;;;;;;5.88;0.60;;;16.90;53.00;;;;;;4712340;30;20071;-74
2021/04/11 10:29:57;;;;;;;3.42;0.50;;;16.90;53.10;;;;;;4696607;30;20071;-74
2021/04/11 10:32:42;;;;;;;5.97;1.02;;;16.90;53.10;;;;;;4722985;30;20056;-74
2021/04/11 10:35:19;;;;;;;4.78;0.73;;;16.90;52.90;;;;;;4720704;30;20052;-75
2021/04/11 10:38:01;;;;;;;3.70;0.90;;;16.90;52.60;;;;;;4738098;30;20056;-75
2021/04/11 10:40:37;;;;;;;2.63;0.50;;;16.90;52.70;;;;;;4746503;30;20045;-74
2021/04/11 10:43:33;;;;;;;1.63;0.50;;;17.00;52.00;;;;;;4747142;29;20053;-74
2021/04/11 10:46:01;;;;;;;3.20;0.95;;;16.90;50.90;;;;;;4803431;29;20129;-74
2021/04/11 10:49:07;;;;;;;1.77;0.40;;;16.90;52.10;;;;;;4791856;29;20486;-74
2021/04/11 10:52:06;;;;;;;3.80;1.08;;;16.80;53.60;;;;;;4798729;29;20454;-74
2021/04/11 10:54:58;;;;;;;3.22;0.50;;;16.80;54.00;;;;;;4773063;29;20046;-74
2021/04/11 10:57:31;;;;;;;2.80;0.60;;;16.70;53.80;;;;;;4784508;29;20046;-74
2021/04/11 11:00:23;;;;;;;2.17;0.52;;;16.70;55.50;;;;;;4773293;29;20143;-74
2021/04/11 11:03:05;;;;;;;2.03;0.45;;;16.70;55.30;;;;;;4789026;29;20047;-74
2021/04/11 11:05:35;;;;;;;3.80;1.40;;;16.80;54.30;;;;;;4773911;29;20082;-75
2021/04/11 11:08:22;;;;;;;1.27;0.40;;;16.70;54.30;;;;;;4779681;29;20059;-74
2021/04/11 11:11:14;;;;;;;4.70;0.73;;;16.70;50.70;;;;;;4799614;29;20047;-73
2021/04/11 11:14:04;;;;;;;1.85;0.50;;;16.60;50.90;;;;;;4782813;29;20090;-74
2021/04/11 11:16:56;;;;;;;2.08;0.40;;;16.60;50.60;;;;;;4796473;29;20586;-74
2021/04/11 11:20:02;;;;;;;3.30;0.80;;;16.60;49.20;;;;;;4809572;29;20129;-74
2021/04/11 11:22:55;;;;;;;5.03;0.65;;;16.60;49.70;;;;;;4784047;29;20152;-74
2021/04/11 11:26:00;;;;;;;2.40;1.00;;;16.60;48.50;;;;;;4780869;29;20054;-74
2021/04/11 11:29:04;;;;;;;5.80;0.90;;;16.60;48.70;;;;;;4780616;29;20147;-74
2021/04/11 11:31:50;;;;;;;3.45;0.90;;;16.60;48.40;;;;;;4802553;29;20042;-74
2021/04/11 11:34:38;;;;;;;2.25;0.75;;;16.60;47.90;;;;;;4782880;29;20058;-75
2021/04/11 11:37:25;;;;;;;2.33;0.50;;;16.60;48.00;;;;;;4776302;29;20050;-74
2021/04/11 11:40:20;;;;;;;7.47;1.13;;;16.60;48.80;;;;;;4784215;29;20070;-74
2021/04/11 11:42:58;;;;;;;2.63;0.50;;;16.50;49.10;;;;;;4784061;29;20445;-74
2021/04/11 11:45:33;;;;;;;5.05;0.60;;;16.50;48.90;;;;;;4785482;29;20043;-73
2021/04/11 11:48:32;;;;;;;5.70;1.17;;;16.50;49.60;;;;;;4793610;29;20103;-74
2021/04/11 11:51:21;;;;;;;3.80;0.77;;;16.60;48.90;;;;;;4792966;29;20058;-74
2021/04/11 11:53:56;;;;;;;2.40;0.60;;;16.60;48.10;;;;;;4759086;29;20196;-73
2021/04/11 11:56:31;;;;;;;6.60;0.85;;;16.60;47.50;;;;;;4780548;29;20051;-74
2021/04/11 11:59:24;;;;;;;3.88;1.13;;;16.60;47.20;;;;;;4790156;29;20642;-74
2021/04/11 12:02:13;;;;;;;3.05;0.90;;;16.60;46.70;;;;;;4782882;29;20063;-74
2021/04/11 12:05:00;;;;;;;6.18;0.60;;;16.60;47.40;;;;;;4782258;29;20559;-74
2021/04/11 12:07:53;;;;;;;9.88;1.27;;;16.60;48.40;;;;;;4779579;29;20075;-73
2021/04/11 12:10:28;;;;;;;2.88;1.15;;;16.40;49.30;;;;;;4774562;29;20162;-74
2021/04/11 12:13:25;;;;;;;4.68;1.25;;;16.40;49.80;;;;;;4780132;29;20710;-74
2021/04/11 12:16:00;;;;;;;7.00;0.75;;;16.30;51.00;;;;;;4777442;29;20133;-73
2021/04/11 12:18:40;;;;;;;2.05;0.35;;;16.30;50.80;;;;;;4785478;29;20051;-74
2021/04/11 12:21:36;;;;;;;4.03;0.90;;;16.30;50.80;;;;;;4783821;29;20404;-73
2021/04/11 12:24:11;;;;;;;3.45;0.75;;;16.20;51.90;;;;;;4791194;29;20062;-74
2021/04/11 12:26:56;;;;;;;2.38;0.40;;;16.20;53.10;;;;;;4797572;29;20572;-74
2021/04/11 12:29:28;;;;;;;5.28;0.93;;;16.10;53.60;;;;;;4783311;29;20062;-74
2021/04/11 12:32:24;;;;;;;1.97;0.53;;;16.10;53.50;;;;;;4796932;29;20054;-74
2021/04/11 12:34:58;;;;;;;5.40;0.80;;;16.10;54.00;;;;;;4781777;29;20311;-74
2021/04/11 12:37:40;;;;;;;3.15;0.70;;;16.00;54.40;;;;;;4793889;29;20051;-74
2021/04/11 12:40:31;;;;;;;4.43;0.77;;;16.00;54.60;;;;;;4776321;29;20419;-74
2021/04/11 12:43:31;;;;;;;2.05;0.75;;;15.90;54.80;;;;;;4766446;30;20554;-74
2021/04/11 12:46:18;;;;;;;3.08;0.93;;;15.90;55.10;;;;;;4785511;29;20051;-74
2021/04/11 12:49:04;;;;;;;2.63;0.73;;;15.90;55.00;;;;;;4794378;29;20047;-74
2021/04/11 12:51:42;;;;;;;2.75;1.15;;;15.80;54.80;;;;;;4784336;29;20082;-74
2021/04/11 12:54:18;;;;;;;2.53;0.80;;;15.80;55.10;;;;;;4784310;29;20058;-74
2021/04/11 12:56:56;;;;;;;3.50;0.68;;;15.90;55.10;;;;;;4764007;29;20050;-74
2021/04/11 12:59:32;;;;;;;2.80;0.77;;;15.90;54.80;;;;;;4783897;29;20049;-73
2021/04/11 13:02:15;;;;;;;6.68;1.02;;;15.90;55.10;;;;;;4773202;29;20050;-74
2021/04/11 13:04:48;;;;;;;1.88;0.55;;;15.80;55.30;;;;;;4800065;29;20499;-73
2021/04/11 13:07:24;;;;;;;4.93;0.77;;;15.80;55.60;;;;;;4782322;29;20051;-73
2021/04/11 13:10:04;;;;;;;2.05;0.50;;;15.80;55.60;;;;;;4785601;29;20054;-73
2021/04/11 13:12:37;;;;;;;2.45;0.40;;;15.80;55.60;;;;;;4784306;29;20063;-74
2021/04/11 13:15:30;;;;;;;9.18;0.82;;;15.70;55.30;;;;;;4779812;29;20063;-74
2021/04/11 13:18:16;;;;;;;1.88;0.60;;;15.80;55.60;;;;;;4767410;29;20055;-74
2021/04/11 13:20:46;;;;;;;2.22;1.02;;;15.70;55.70;;;;;;4796191;29;20043;-74
2021/04/11 13:23:39;;;;;;;2.42;0.70;;;15.70;56.20;;;;;;4783223;29;20054;-73
2021/04/11 13:26:33;;;;;;;2.28;0.65;;;15.70;56.40;;;;;;4782233;29;20051;-74
2021/04/11 13:29:37;;;;;;;3.65;0.90;;;15.70;56.40;;;;;;4781048;29;20051;-73
2021/04/11 13:32:06;;;;;;;3.72;0.68;;;15.70;56.60;;;;;;4798254;29;20047;-73
2021/04/11 13:34:41;;;;;;;2.28;0.65;;;15.70;56.40;;;;;;4791150;29;20588;-74
2021/04/11 13:37:12;;;;;;;2.30;0.80;;;15.70;56.70;;;;;;4784965;29;20054;-74
2021/04/11 13:39:42;;;;;;;2.70;0.77;;;15.70;56.70;;;;;;4802647;29;20145;-74
2021/04/11 13:42:28;;;;;;;2.75;0.60;;;15.70;56.40;;;;;;4783729;29;20047;-74
2021/04/11 13:45:05;;;;;;;2.15;0.80;;;15.60;56.70;;;;;;4775581;29;20641;-74
2021/04/11 13:47:35;;;;;;;2.30;0.80;;;15.60;56.80;;;;;;4771349;29;20059;-74
2021/04/11 13:50:19;;;;;;;3.47;0.70;;;15.60;56.60;;;;;;4794024;29;20424;-74
2021/04/11 13:53:01;;;;;;;2.25;0.65;;;15.60;56.90;;;;;;4800182;29;20153;-74
2021/04/11 13:55:46;;;;;;;3.35;0.98;;;15.60;57.20;;;;;;4796885;29;20075;-74
2021/04/11 13:58:22;;;;;;;2.15;0.73;;;15.60;57.30;;;;;;4802016;29;20080;-74
2021/04/11 14:01:07;;;;;;;5.05;0.85;;;15.60;57.10;;;;;;4783835;29;20074;-74
2021/04/11 14:03:40;;;;;;;4.10;1.08;;;15.60;57.00;;;;;;4780577;29;20069;-74
2021/04/11 14:06:21;;;;;;;5.15;1.20;;;15.60;57.30;;;;;;4783524;29;20066;-74